sensor_id;sensor_type;location;lat;lon;timestamp;P1;P2;P0
76049;PMS7003;64967;50.234;19.224;2023-06-14T00:00:54;1.25;1.25;1.00
76049;PMS7003;64967;50.234;19.224;2023-06-14T00:03:26;1.00;1.00;1.00
76049;PMS7003;64967;50.234;19.224;2023-06-14T00:06:10;1.00;1.00;1.00
76049;PMS7003;64967;50.234;19.224;2023-06-14T00:08:56;1.00;1.00;1.00
76049;PMS7003;64967;50.234;19.224;2023-06-14T00:11:49;2.25;1.00;1.00
76049;PMS7003;64967;50.234;19.224;2023-06-14T00:14:39;0.75;0.75;0.75
76049;PMS7003;64967;50.234;19.224;2023-06-14T00:17:28;1.50;1.00;1.00
76049;PMS7003;64967;50.234;19.224;2023-06-14T00:19:58;3.75;3.00;2.25
76049;PMS7003;64967;50.234;19.224;2023-06-14T00:22:25;2.00;1.75;1.75
76049;PMS7003;64967;50.234;19.224;2023-06-14T00:24:55;1.00;1.00;1.00
76049;PMS7003;64967;50.234;19.224;2023-06-14T00:27:22;1.50;1.00;1.00
76049;PMS7003;64967;50.234;19.224;2023-06-14T00:29:49;2.00;1.75;1.00
76049;PMS7003;64967;50.234;19.224;2023-06-14T00:32:18;2.00;2.00;2.00
76049;PMS7003;64967;50.234;19.224;2023-06-14T00:34:45;1.00;1.00;1.00
76049;PMS7003;64967;50.234;19.224;2023-06-14T00:37:12;2.00;2.00;2.00
76049;PMS7003;64967;50.234;19.224;2023-06-14T00:39:39;2.75;2.50;2.00
76049;PMS7003;64967;50.234;19.224;2023-06-14T00:42:06;2.00;2.00;2.00
76049;PMS7003;64967;50.234;19.224;2023-06-14T00:44:33;3.50;3.50;3.00
76049;PMS7003;64967;50.234;19.224;2023-06-14T00:47:01;3.00;3.00;2.00
76049;PMS7003;64967;50.234;19.224;2023-06-14T00:49:28;4.75;4.00;3.00
76049;PMS7003;64967;50.234;19.224;2023-06-14T00:51:56;3.50;3.00;3.00
76049;PMS7003;64967;50.234;19.224;2023-06-14T00:54:23;3.00;2.00;1.25
76049;PMS7003;64967;50.234;19.224;2023-06-14T00:56:50;2.00;1.50;1.50
76049;PMS7003;64967;50.234;19.224;2023-06-14T00:59:17;1.00;1.00;1.00
76049;PMS7003;64967;50.234;19.224;2023-06-14T01:01:44;3.00;3.00;3.00
76049;PMS7003;64967;50.234;19.224;2023-06-14T01:04:11;1.75;1.00;1.00
76049;PMS7003;64967;50.234;19.224;2023-06-14T01:06:49;2.75;2.00;1.75
76049;PMS7003;64967;50.234;19.224;2023-06-14T01:16:21;3.50;3.50;3.00
76049;PMS7003;64967;50.234;19.224;2023-06-14T01:19:05;3.75;3.50;2.75
76049;PMS7003;64967;50.234;19.224;2023-06-14T01:21:35;4.00;4.00;3.00
76049;PMS7003;64967;50.234;19.224;2023-06-14T01:24:09;12.50;7.75;4.50
76049;PMS7003;64967;50.234;19.224;2023-06-14T01:26:37;14.25;11.50;9.00
76049;PMS7003;64967;50.234;19.224;2023-06-14T01:29:13;11.75;10.00;8.00
76049;PMS7003;64967;50.234;19.224;2023-06-14T01:31:44;8.00;8.00;5.25
76049;PMS7003;64967;50.234;19.224;2023-06-14T01:34:12;4.25;4.00;3.00
76049;PMS7003;64967;50.234;19.224;2023-06-14T01:36:43;4.25;4.00;3.75
76049;PMS7003;64967;50.234;19.224;2023-06-14T01:39:12;3.75;1.00;1.00
76049;PMS7003;64967;50.234;19.224;2023-06-14T01:41:41;2.00;2.00;1.75
76049;PMS7003;64967;50.234;19.224;2023-06-14T01:44:12;2.00;2.00;1.00
76049;PMS7003;64967;50.234;19.224;2023-06-14T01:46:42;1.00;1.00;1.00
76049;PMS7003;64967;50.234;19.224;2023-06-14T01:49:10;3.00;3.00;1.50
76049;PMS7003;64967;50.234;19.224;2023-06-14T01:51:38;3.00;2.00;2.00
76049;PMS7003;64967;50.234;19.224;2023-06-14T01:54:05;7.25;5.00;3.25
76049;PMS7003;64967;50.234;19.224;2023-06-14T01:56:32;11.50;10.00;5.25
76049;PMS7003;64967;50.234;19.224;2023-06-14T01:58:59;10.50;10.50;8.50
76049;PMS7003;64967;50.234;19.224;2023-06-14T02:01:26;9.50;8.50;5.75
76049;PMS7003;64967;50.234;19.224;2023-06-14T02:03:53;7.25;5.00;3.25
76049;PMS7003;64967;50.234;19.224;2023-06-14T02:06:20;4.00;4.00;3.00
76049;PMS7003;64967;50.234;19.224;2023-06-14T02:08:47;3.50;3.50;3.25
76049;PMS7003;64967;50.234;19.224;2023-06-14T02:11:14;3.00;3.00;3.00
76049;PMS7003;64967;50.234;19.224;2023-06-14T02:13:42;2.50;2.50;1.75
76049;PMS7003;64967;50.234;19.224;2023-06-14T02:16:09;3.00;2.75;2.00
76049;PMS7003;64967;50.234;19.224;2023-06-14T02:18:36;3.00;3.00;3.00
76049;PMS7003;64967;50.234;19.224;2023-06-14T02:21:03;3.00;2.00;1.50
76049;PMS7003;64967;50.234;19.224;2023-06-14T02:23:30;3.75;2.75;2.00
76049;PMS7003;64967;50.234;19.224;2023-06-14T02:26:01;3.00;3.00;3.00
76049;PMS7003;64967;50.234;19.224;2023-06-14T02:28:29;2.75;2.00;1.75
76049;PMS7003;64967;50.234;19.224;2023-06-14T02:30:56;2.50;1.50;1.50
76049;PMS7003;64967;50.234;19.224;2023-06-14T02:33:23;1.00;1.00;1.00
76049;PMS7003;64967;50.234;19.224;2023-06-14T02:35:51;0.50;0.50;0.00
76049;PMS7003;64967;50.234;19.224;2023-06-14T02:38:19;1.00;1.00;1.00
76049;PMS7003;64967;50.234;19.224;2023-06-14T02:40:46;3.50;3.00;2.25
76049;PMS7003;64967;50.234;19.224;2023-06-14T02:43:13;2.00;2.00;1.75
76049;PMS7003;64967;50.234;19.224;2023-06-14T02:45:40;4.00;4.00;3.00
76049;PMS7003;64967;50.234;19.224;2023-06-14T02:48:07;2.50;2.00;2.00
76049;PMS7003;64967;50.234;19.224;2023-06-14T02:50:34;4.50;4.00;4.00
76049;PMS7003;64967;50.234;19.224;2023-06-14T02:53:01;4.75;4.00;3.50
76049;PMS7003;64967;50.234;19.224;2023-06-14T02:55:30;4.50;4.00;3.00
76049;PMS7003;64967;50.234;19.224;2023-06-14T02:57:57;5.00;3.00;2.50
76049;PMS7003;64967;50.234;19.224;2023-06-14T03:00:24;5.00;5.00;4.00
76049;PMS7003;64967;50.234;19.224;2023-06-14T03:02:51;10.00;6.00;4.00
76049;PMS7003;64967;50.234;19.224;2023-06-14T03:05:18;5.00;4.00;3.00
76049;PMS7003;64967;50.234;19.224;2023-06-14T03:07:48;3.25;3.00;3.00
76049;PMS7003;64967;50.234;19.224;2023-06-14T03:10:17;6.75;5.50;4.00
76049;PMS7003;64967;50.234;19.224;2023-06-14T03:12:44;4.50;3.50;2.75
76049;PMS7003;64967;50.234;19.224;2023-06-14T03:15:11;3.75;3.75;3.00
76049;PMS7003;64967;50.234;19.224;2023-06-14T03:17:39;1.25;1.25;1.00
76049;PMS7003;64967;50.234;19.224;2023-06-14T03:20:07;1.50;1.00;0.00
76049;PMS7003;64967;50.234;19.224;2023-06-14T03:22:35;4.00;3.75;3.00
76049;PMS7003;64967;50.234;19.224;2023-06-14T03:25:02;4.00;4.00;3.00
76049;PMS7003;64967;50.234;19.224;2023-06-14T03:27:31;9.00;7.25;6.00
76049;PMS7003;64967;50.234;19.224;2023-06-14T03:29:57;6.00;4.00;3.50
76049;PMS7003;64967;50.234;19.224;2023-06-14T03:32:24;7.25;5.25;4.00
76049;PMS7003;64967;50.234;19.224;2023-06-14T03:34:51;5.50;4.50;3.25
76049;PMS7003;64967;50.234;19.224;2023-06-14T03:37:19;6.00;4.00;3.00
76049;PMS7003;64967;50.234;19.224;2023-06-14T03:39:46;2.25;2.25;2.00
76049;PMS7003;64967;50.234;19.224;2023-06-14T03:42:14;2.75;2.00;2.00
76049;PMS7003;64967;50.234;19.224;2023-06-14T03:44:41;3.75;3.00;3.00
76049;PMS7003;64967;50.234;19.224;2023-06-14T03:47:08;3.00;3.00;2.00
76049;PMS7003;64967;50.234;19.224;2023-06-14T03:49:35;3.25;2.00;2.00
76049;PMS7003;64967;50.234;19.224;2023-06-14T03:52:03;1.50;1.50;1.50
76049;PMS7003;64967;50.234;19.224;2023-06-14T03:54:30;3.75;3.00;2.00
76049;PMS7003;64967;50.234;19.224;2023-06-14T03:57:02;3.50;3.25;3.25
76049;PMS7003;64967;50.234;19.224;2023-06-14T03:59:29;3.00;3.00;2.75
76049;PMS7003;64967;50.234;19.224;2023-06-14T04:01:56;5.25;3.00;3.00
76049;PMS7003;64967;50.234;19.224;2023-06-14T04:04:23;3.75;3.00;2.50
76049;PMS7003;64967;50.234;19.224;2023-06-14T04:06:55;5.75;4.00;3.00
76049;PMS7003;64967;50.234;19.224;2023-06-14T04:09:24;9.00;7.00;5.50
76049;PMS7003;64967;50.234;19.224;2023-06-14T04:11:52;6.25;6.25;5.00
76049;PMS7003;64967;50.234;19.224;2023-06-14T04:14:19;5.00;4.00;3.00
76049;PMS7003;64967;50.234;19.224;2023-06-14T04:16:47;4.75;4.75;4.00
76049;PMS7003;64967;50.234;19.224;2023-06-14T04:19:15;9.75;6.25;5.00
76049;PMS7003;64967;50.234;19.224;2023-06-14T04:21:42;6.25;5.75;5.00
76049;PMS7003;64967;50.234;19.224;2023-06-14T04:24:09;4.00;4.00;3.00
76049;PMS7003;64967;50.234;19.224;2023-06-14T04:26:43;3.25;3.25;3.00
76049;PMS7003;64967;50.234;19.224;2023-06-14T04:29:11;5.00;4.75;3.00
76049;PMS7003;64967;50.234;19.224;2023-06-14T04:31:43;6.00;6.00;4.50
76049;PMS7003;64967;50.234;19.224;2023-06-14T04:34:11;5.50;5.50;4.25
76049;PMS7003;64967;50.234;19.224;2023-06-14T04:36:45;5.50;5.00;3.75
76049;PMS7003;64967;50.234;19.224;2023-06-14T04:39:19;10.50;8.00;5.75
76049;PMS7003;64967;50.234;19.224;2023-06-14T04:41:48;10.25;9.25;6.50
76049;PMS7003;64967;50.234;19.224;2023-06-14T04:44:19;11.00;8.25;7.00
76049;PMS7003;64967;50.234;19.224;2023-06-14T04:46:50;12.25;10.00;6.75
76049;PMS7003;64967;50.234;19.224;2023-06-14T04:49:18;9.75;8.00;6.00
76049;PMS7003;64967;50.234;19.224;2023-06-14T04:51:45;10.50;9.75;6.00
76049;PMS7003;64967;50.234;19.224;2023-06-14T04:54:13;5.00;5.00;3.50
76049;PMS7003;64967;50.234;19.224;2023-06-14T04:56:41;12.50;10.25;6.25
76049;PMS7003;64967;50.234;19.224;2023-06-14T04:59:09;7.50;7.00;5.00
76049;PMS7003;64967;50.234;19.224;2023-06-14T05:01:38;7.00;6.00;5.00
76049;PMS7003;64967;50.234;19.224;2023-06-14T05:04:05;9.00;9.00;6.25
76049;PMS7003;64967;50.234;19.224;2023-06-14T05:06:32;8.50;6.75;5.00
76049;PMS7003;64967;50.234;19.224;2023-06-14T05:08:59;6.00;5.50;4.00
76049;PMS7003;64967;50.234;19.224;2023-06-14T05:11:26;6.25;4.25;3.00
76049;PMS7003;64967;50.234;19.224;2023-06-14T05:13:53;5.50;5.50;4.50
76049;PMS7003;64967;50.234;19.224;2023-06-14T05:16:21;12.00;12.00;8.50
76049;PMS7003;64967;50.234;19.224;2023-06-14T05:18:52;7.25;6.00;5.25
76049;PMS7003;64967;50.234;19.224;2023-06-14T05:21:19;5.25;4.00;2.50
76049;PMS7003;64967;50.234;19.224;2023-06-14T05:23:46;9.50;8.50;6.25
76049;PMS7003;64967;50.234;19.224;2023-06-14T05:26:13;5.00;5.00;3.75
76049;PMS7003;64967;50.234;19.224;2023-06-14T05:28:41;5.25;5.25;4.50
76049;PMS7003;64967;50.234;19.224;2023-06-14T05:31:08;5.25;5.00;3.25
76049;PMS7003;64967;50.234;19.224;2023-06-14T05:33:35;5.25;5.25;4.00
76049;PMS7003;64967;50.234;19.224;2023-06-14T05:36:02;2.50;2.50;2.50
76049;PMS7003;64967;50.234;19.224;2023-06-14T05:38:31;4.75;4.00;3.50
76049;PMS7003;64967;50.234;19.224;2023-06-14T05:40:58;6.25;5.50;3.75
76049;PMS7003;64967;50.234;19.224;2023-06-14T05:43:26;9.25;7.75;5.50
76049;PMS7003;64967;50.234;19.224;2023-06-14T05:45:53;9.00;7.50;5.50
76049;PMS7003;64967;50.234;19.224;2023-06-14T05:48:20;11.50;9.00;7.00
76049;PMS7003;64967;50.234;19.224;2023-06-14T05:50:47;12.00;8.00;6.00
76049;PMS7003;64967;50.234;19.224;2023-06-14T05:53:14;6.75;6.25;5.75
76049;PMS7003;64967;50.234;19.224;2023-06-14T06:11:26;14.00;13.00;8.75
76049;PMS7003;64967;50.234;19.224;2023-06-14T06:14:03;13.50;11.00;7.25
76049;PMS7003;64967;50.234;19.224;2023-06-14T06:16:29;13.00;13.00;8.25
76049;PMS7003;64967;50.234;19.224;2023-06-14T06:18:57;11.50;9.25;7.00
76049;PMS7003;64967;50.234;19.224;2023-06-14T06:21:24;11.50;10.00;6.75
76049;PMS7003;64967;50.234;19.224;2023-06-14T06:26:53;9.25;7.00;6.00
76049;PMS7003;64967;50.234;19.224;2023-06-14T06:29:20;8.00;6.00;5.00
76049;PMS7003;64967;50.234;19.224;2023-06-14T06:31:47;14.00;12.25;9.25
76049;PMS7003;64967;50.234;19.224;2023-06-14T06:34:14;17.00;17.00;11.75
76049;PMS7003;64967;50.234;19.224;2023-06-14T06:36:41;21.25;19.00;12.00
76049;PMS7003;64967;50.234;19.224;2023-06-14T06:39:09;16.00;16.00;12.00
76049;PMS7003;64967;50.234;19.224;2023-06-14T06:41:41;20.00;12.00;7.25
76049;PMS7003;64967;50.234;19.224;2023-06-14T06:44:08;16.00;14.00;11.00
76049;PMS7003;64967;50.234;19.224;2023-06-14T06:46:37;16.00;13.75;9.50
76049;PMS7003;64967;50.234;19.224;2023-06-14T06:49:08;23.75;17.50;13.00
76049;PMS7003;64967;50.234;19.224;2023-06-14T06:51:36;25.00;18.50;13.00
76049;PMS7003;64967;50.234;19.224;2023-06-14T06:54:06;16.00;14.75;11.25
76049;PMS7003;64967;50.234;19.224;2023-06-14T06:56:34;24.25;20.00;12.00
76049;PMS7003;64967;50.234;19.224;2023-06-14T06:59:02;26.50;20.75;14.00
76049;PMS7003;64967;50.234;19.224;2023-06-14T07:01:29;22.50;19.00;14.00
76049;PMS7003;64967;50.234;19.224;2023-06-14T07:03:56;21.50;17.25;11.75
76049;PMS7003;64967;50.234;19.224;2023-06-14T07:06:23;17.50;16.00;10.25
76049;PMS7003;64967;50.234;19.224;2023-06-14T07:08:53;18.50;16.25;12.00
76049;PMS7003;64967;50.234;19.224;2023-06-14T07:11:20;16.50;15.75;9.50
76049;PMS7003;64967;50.234;19.224;2023-06-14T07:13:48;19.25;16.75;11.00
76049;PMS7003;64967;50.234;19.224;2023-06-14T07:16:15;16.00;15.25;9.00
76049;PMS7003;64967;50.234;19.224;2023-06-14T07:18:42;16.25;14.75;11.25
76049;PMS7003;64967;50.234;19.224;2023-06-14T07:21:10;25.25;17.25;10.50
76049;PMS7003;64967;50.234;19.224;2023-06-14T07:23:37;20.50;16.50;11.75
76049;PMS7003;64967;50.234;19.224;2023-06-14T07:26:04;11.75;11.25;8.00
76049;PMS7003;64967;50.234;19.224;2023-06-14T07:28:31;10.75;9.50;6.75
76049;PMS7003;64967;50.234;19.224;2023-06-14T07:30:59;15.50;9.50;5.00
76049;PMS7003;64967;50.234;19.224;2023-06-14T07:33:26;15.50;10.25;7.00
76049;PMS7003;64967;50.234;19.224;2023-06-14T07:35:53;9.00;8.00;5.75
76049;PMS7003;64967;50.234;19.224;2023-06-14T07:38:20;11.75;9.75;6.00
76049;PMS7003;64967;50.234;19.224;2023-06-14T07:40:47;10.00;7.00;5.00
76049;PMS7003;64967;50.234;19.224;2023-06-14T07:43:14;7.25;6.00;4.50
76049;PMS7003;64967;50.234;19.224;2023-06-14T07:45:41;9.50;9.25;5.75
76049;PMS7003;64967;50.234;19.224;2023-06-14T07:48:23;7.00;6.50;5.00
76049;PMS7003;64967;50.234;19.224;2023-06-14T07:50:53;6.00;4.00;4.00
76049;PMS7003;64967;50.234;19.224;2023-06-14T07:53:20;5.00;3.00;3.00
76049;PMS7003;64967;50.234;19.224;2023-06-14T07:55:47;3.25;3.25;2.75
76049;PMS7003;64967;50.234;19.224;2023-06-14T07:58:19;4.00;3.00;2.50
76049;PMS7003;64967;50.234;19.224;2023-06-14T08:00:46;4.00;4.00;3.00
76049;PMS7003;64967;50.234;19.224;2023-06-14T08:03:13;4.00;3.00;2.75
76049;PMS7003;64967;50.234;19.224;2023-06-14T08:05:41;2.00;2.00;1.25
76049;PMS7003;64967;50.234;19.224;2023-06-14T08:08:08;4.25;4.00;3.50
76049;PMS7003;64967;50.234;19.224;2023-06-14T08:10:35;4.00;4.00;3.75
76049;PMS7003;64967;50.234;19.224;2023-06-14T08:13:02;4.00;4.00;3.00
76049;PMS7003;64967;50.234;19.224;2023-06-14T08:15:29;3.00;2.50;2.00
76049;PMS7003;64967;50.234;19.224;2023-06-14T08:17:56;2.00;2.00;2.00
76049;PMS7003;64967;50.234;19.224;2023-06-14T08:20:24;1.75;1.75;1.75
76049;PMS7003;64967;50.234;19.224;2023-06-14T08:22:51;1.00;1.00;1.00
76049;PMS7003;64967;50.234;19.224;2023-06-14T08:25:21;4.75;3.00;2.50
76049;PMS7003;64967;50.234;19.224;2023-06-14T08:27:49;2.50;2.00;2.00
76049;PMS7003;64967;50.234;19.224;2023-06-14T08:30:17;2.00;1.25;1.25
76049;PMS7003;64967;50.234;19.224;2023-06-14T08:32:44;3.00;3.00;2.75
76049;PMS7003;64967;50.234;19.224;2023-06-14T08:35:13;4.75;4.00;3.00
76049;PMS7003;64967;50.234;19.224;2023-06-14T08:37:41;2.00;2.00;1.75
76049;PMS7003;64967;50.234;19.224;2023-06-14T08:40:12;2.00;2.00;2.00
76049;PMS7003;64967;50.234;19.224;2023-06-14T08:42:53;3.00;2.00;1.50
76049;PMS7003;64967;50.234;19.224;2023-06-14T08:45:22;5.50;4.50;3.50
76049;PMS7003;64967;50.234;19.224;2023-06-14T08:47:53;5.25;4.25;3.75
76049;PMS7003;64967;50.234;19.224;2023-06-14T08:50:25;1.75;1.75;1.00
76049;PMS7003;64967;50.234;19.224;2023-06-14T08:52:59;5.25;5.00;4.25
76049;PMS7003;64967;50.234;19.224;2023-06-14T08:55:31;5.00;4.50;3.75
76049;PMS7003;64967;50.234;19.224;2023-06-14T08:58:02;4.00;4.00;3.00
76049;PMS7003;64967;50.234;19.224;2023-06-14T09:00:30;4.00;3.50;3.00
76049;PMS7003;64967;50.234;19.224;2023-06-14T09:03:00;3.75;3.75;3.25
76049;PMS7003;64967;50.234;19.224;2023-06-14T09:05:27;2.00;2.00;2.00
76049;PMS7003;64967;50.234;19.224;2023-06-14T09:07:55;5.00;4.00;4.00
76049;PMS7003;64967;50.234;19.224;2023-06-14T09:10:32;2.25;2.25;2.00
76049;PMS7003;64967;50.234;19.224;2023-06-14T09:13:04;7.50;6.75;6.00
76049;PMS7003;64967;50.234;19.224;2023-06-14T09:15:32;6.00;6.00;5.00
76049;PMS7003;64967;50.234;19.224;2023-06-14T09:18:03;6.00;6.00;5.00
76049;PMS7003;64967;50.234;19.224;2023-06-14T09:20:30;6.25;5.50;5.00
76049;PMS7003;64967;50.234;19.224;2023-06-14T09:22:59;2.75;2.75;2.75
76049;PMS7003;64967;50.234;19.224;2023-06-14T09:25:27;4.00;3.50;3.00
76049;PMS7003;64967;50.234;19.224;2023-06-14T09:28:06;2.75;2.75;2.00
76049;PMS7003;64967;50.234;19.224;2023-06-14T09:30:39;3.00;3.00;2.25
76049;PMS7003;64967;50.234;19.224;2023-06-14T09:33:06;10.00;9.00;7.00
76049;PMS7003;64967;50.234;19.224;2023-06-14T09:35:34;5.50;5.50;5.00
76049;PMS7003;64967;50.234;19.224;2023-06-14T09:38:02;7.00;7.00;6.00
76049;PMS7003;64967;50.234;19.224;2023-06-14T09:40:33;6.50;6.25;6.00
76049;PMS7003;64967;50.234;19.224;2023-06-14T09:43:04;4.75;4.00;3.00
76049;PMS7003;64967;50.234;19.224;2023-06-14T09:45:33;5.00;4.25;3.00
76049;PMS7003;64967;50.234;19.224;2023-06-14T09:48:01;4.25;4.25;4.00
76049;PMS7003;64967;50.234;19.224;2023-06-14T09:50:34;3.00;3.00;3.00
76049;PMS7003;64967;50.234;19.224;2023-06-14T09:53:10;5.50;5.00;4.00
76049;PMS7003;64967;50.234;19.224;2023-06-14T09:55:39;4.00;4.00;4.00
76049;PMS7003;64967;50.234;19.224;2023-06-14T09:58:08;3.50;3.00;2.75
76049;PMS7003;64967;50.234;19.224;2023-06-14T10:00:39;3.00;3.00;3.00
76049;PMS7003;64967;50.234;19.224;2023-06-14T10:03:16;3.50;3.50;3.25
76049;PMS7003;64967;50.234;19.224;2023-06-14T10:05:50;3.50;3.00;2.00
76049;PMS7003;64967;50.234;19.224;2023-06-14T10:08:19;3.00;2.50;1.75
76049;PMS7003;64967;50.234;19.224;2023-06-14T10:10:51;4.00;3.00;3.00
76049;PMS7003;64967;50.234;19.224;2023-06-14T10:13:18;5.25;4.75;3.25
76049;PMS7003;64967;50.234;19.224;2023-06-14T10:18:40;5.75;4.25;3.50
76049;PMS7003;64967;50.234;19.224;2023-06-14T10:21:20;5.00;5.00;4.00
76049;PMS7003;64967;50.234;19.224;2023-06-14T10:23:55;4.25;3.75;3.25
76049;PMS7003;64967;50.234;19.224;2023-06-14T10:26:26;3.50;3.25;3.00
76049;PMS7003;64967;50.234;19.224;2023-06-14T10:28:57;4.00;4.00;3.50
76049;PMS7003;64967;50.234;19.224;2023-06-14T10:31:40;3.00;3.00;3.00
76049;PMS7003;64967;50.234;19.224;2023-06-14T10:34:09;4.00;4.00;3.00
76049;PMS7003;64967;50.234;19.224;2023-06-14T10:36:37;3.00;2.25;2.00
76049;PMS7003;64967;50.234;19.224;2023-06-14T10:39:08;4.00;3.00;3.00
76049;PMS7003;64967;50.234;19.224;2023-06-14T10:41:41;4.50;4.00;3.00
76049;PMS7003;64967;50.234;19.224;2023-06-14T10:49:36;0.00;0.00;0.00
76049;PMS7003;64967;50.234;19.224;2023-06-14T10:52:12;3.00;3.00;2.25
76049;PMS7003;64967;50.234;19.224;2023-06-14T10:57:33;4.00;4.00;4.00
76049;PMS7003;64967;50.234;19.224;2023-06-14T11:00:17;4.00;3.00;3.00
76049;PMS7003;64967;50.234;19.224;2023-06-14T11:06:09;4.50;4.50;4.25
76049;PMS7003;64967;50.234;19.224;2023-06-14T11:11:06;4.00;4.00;3.00
76049;PMS7003;64967;50.234;19.224;2023-06-14T11:13:38;6.00;5.00;5.00
76049;PMS7003;64967;50.234;19.224;2023-06-14T11:16:12;6.75;6.75;5.50
76049;PMS7003;64967;50.234;19.224;2023-06-14T11:18:41;4.75;4.00;3.25
76049;PMS7003;64967;50.234;19.224;2023-06-14T11:21:09;4.00;4.00;3.67
76049;PMS7003;64967;50.234;19.224;2023-06-14T11:23:36;7.00;6.00;5.00
76049;PMS7003;64967;50.234;19.224;2023-06-14T11:26:04;4.00;3.75;3.00
76049;PMS7003;64967;50.234;19.224;2023-06-14T11:28:38;5.25;4.00;3.00
76049;PMS7003;64967;50.234;19.224;2023-06-14T11:31:07;3.00;3.00;3.00
76049;PMS7003;64967;50.234;19.224;2023-06-14T11:33:36;3.00;3.00;2.00
76049;PMS7003;64967;50.234;19.224;2023-06-14T11:36:03;2.33;2.00;2.00
76049;PMS7003;64967;50.234;19.224;2023-06-14T11:38:35;2.00;2.00;2.00
76049;PMS7003;64967;50.234;19.224;2023-06-14T11:41:04;5.00;5.00;4.50
76049;PMS7003;64967;50.234;19.224;2023-06-14T11:43:32;3.67;3.67;3.00
76049;PMS7003;64967;50.234;19.224;2023-06-14T11:46:01;3.00;2.33;2.00
76049;PMS7003;64967;50.234;19.224;2023-06-14T11:48:40;2.00;2.00;2.00
76049;PMS7003;64967;50.234;19.224;2023-06-14T11:51:09;4.00;2.00;2.00
76049;PMS7003;64967;50.234;19.224;2023-06-14T11:53:36;3.00;3.00;2.67
76049;PMS7003;64967;50.234;19.224;2023-06-14T11:56:03;2.00;2.00;1.00
76049;PMS7003;64967;50.234;19.224;2023-06-14T11:58:31;2.67;1.67;1.00
76049;PMS7003;64967;50.234;19.224;2023-06-14T12:00:58;2.00;2.00;2.00
76049;PMS7003;64967;50.234;19.224;2023-06-14T12:03:26;2.00;2.00;2.00
76049;PMS7003;64967;50.234;19.224;2023-06-14T12:06:06;3.33;3.33;2.33
76049;PMS7003;64967;50.234;19.224;2023-06-14T12:08:36;3.00;3.00;3.00
76049;PMS7003;64967;50.234;19.224;2023-06-14T12:11:10;4.00;3.00;3.00
76049;PMS7003;64967;50.234;19.224;2023-06-14T12:13:39;4.50;3.00;2.50
76049;PMS7003;64967;50.234;19.224;2023-06-14T12:16:10;3.00;2.67;2.67
76049;PMS7003;64967;50.234;19.224;2023-06-14T12:18:39;3.00;3.00;3.00
76049;PMS7003;64967;50.234;19.224;2023-06-14T12:21:08;3.33;3.33;3.33
76049;PMS7003;64967;50.234;19.224;2023-06-14T12:26:14;3.00;3.00;3.00
76049;PMS7003;64967;50.234;19.224;2023-06-14T12:28:46;2.67;2.00;1.67
76049;PMS7003;64967;50.234;19.224;2023-06-14T12:31:14;3.33;3.33;3.00
76049;PMS7003;64967;50.234;19.224;2023-06-14T12:33:43;3.00;3.00;3.00
76049;PMS7003;64967;50.234;19.224;2023-06-14T12:36:13;3.00;2.67;2.00
76049;PMS7003;64967;50.234;19.224;2023-06-14T12:38:40;5.00;5.00;4.00
76049;PMS7003;64967;50.234;19.224;2023-06-14T12:41:08;3.00;3.00;2.67
76049;PMS7003;64967;50.234;19.224;2023-06-14T12:43:35;3.00;3.00;3.00
76049;PMS7003;64967;50.234;19.224;2023-06-14T12:46:02;4.00;4.00;3.00
76049;PMS7003;64967;50.234;19.224;2023-06-14T12:48:29;1.00;1.00;1.00
76049;PMS7003;64967;50.234;19.224;2023-06-14T12:50:57;3.00;3.00;3.00
76049;PMS7003;64967;50.234;19.224;2023-06-14T12:53:25;3.00;3.00;3.00
76049;PMS7003;64967;50.234;19.224;2023-06-14T12:55:52;1.00;1.00;1.00
76049;PMS7003;64967;50.234;19.224;2023-06-14T12:58:19;2.00;2.00;2.00
76049;PMS7003;64967;50.234;19.224;2023-06-14T13:00:47;2.00;2.00;2.00
76049;PMS7003;64967;50.234;19.224;2023-06-14T13:03:14;3.00;2.33;2.00
76049;PMS7003;64967;50.234;19.224;2023-06-14T13:05:41;3.67;3.00;2.00
76049;PMS7003;64967;50.234;19.224;2023-06-14T13:08:09;5.00;4.00;4.00
76049;PMS7003;64967;50.234;19.224;2023-06-14T13:10:36;4.67;4.00;4.00
76049;PMS7003;64967;50.234;19.224;2023-06-14T13:13:04;4.00;4.00;4.00
76049;PMS7003;64967;50.234;19.224;2023-06-14T13:15:31;3.00;3.00;3.00
76049;PMS7003;64967;50.234;19.224;2023-06-14T13:17:58;7.00;6.00;5.67
76049;PMS7003;64967;50.234;19.224;2023-06-14T13:20:25;6.00;6.00;5.00
76049;PMS7003;64967;50.234;19.224;2023-06-14T13:22:52;6.67;6.00;5.33
76049;PMS7003;64967;50.234;19.224;2023-06-14T13:25:19;5.00;5.00;4.00
76049;PMS7003;64967;50.234;19.224;2023-06-14T13:27:47;8.00;8.00;6.67
76049;PMS7003;64967;50.234;19.224;2023-06-14T13:30:14;7.00;7.00;7.00
76049;PMS7003;64967;50.234;19.224;2023-06-14T13:32:42;8.00;8.00;7.00
76049;PMS7003;64967;50.234;19.224;2023-06-14T13:35:11;9.67;8.00;7.00
76049;PMS7003;64967;50.234;19.224;2023-06-14T13:37:38;9.33;8.00;7.00
76049;PMS7003;64967;50.234;19.224;2023-06-14T13:40:06;7.33;7.00;6.00
76049;PMS7003;64967;50.234;19.224;2023-06-14T13:42:33;7.00;7.00;6.00
76049;PMS7003;64967;50.234;19.224;2023-06-14T13:45:02;6.00;6.00;5.00
76049;PMS7003;64967;50.234;19.224;2023-06-14T13:47:30;7.00;6.67;6.00
76049;PMS7003;64967;50.234;19.224;2023-06-14T13:49:58;6.00;6.00;6.00
76049;PMS7003;64967;50.234;19.224;2023-06-14T13:52:25;8.33;7.33;6.67
76049;PMS7003;64967;50.234;19.224;2023-06-14T13:54:52;8.00;8.00;7.00
76049;PMS7003;64967;50.234;19.224;2023-06-14T13:57:19;6.00;5.33;4.33
76049;PMS7003;64967;50.234;19.224;2023-06-14T13:59:46;8.00;8.00;6.33
76049;PMS7003;64967;50.234;19.224;2023-06-14T14:02:13;8.67;8.00;6.00
76049;PMS7003;64967;50.234;19.224;2023-06-14T14:04:41;9.00;8.00;7.00
76049;PMS7003;64967;50.234;19.224;2023-06-14T14:07:10;11.00;10.00;8.00
76049;PMS7003;64967;50.234;19.224;2023-06-14T14:09:37;7.00;7.00;5.33
76049;PMS7003;64967;50.234;19.224;2023-06-14T14:12:06;12.00;11.67;8.33
76049;PMS7003;64967;50.234;19.224;2023-06-14T14:14:33;9.00;8.00;7.00
76049;PMS7003;64967;50.234;19.224;2023-06-14T14:17:00;14.33;12.00;9.00
76049;PMS7003;64967;50.234;19.224;2023-06-14T14:19:27;15.33;12.67;9.00
76049;PMS7003;64967;50.234;19.224;2023-06-14T14:21:55;12.33;12.33;9.67
76049;PMS7003;64967;50.234;19.224;2023-06-14T14:24:22;11.00;11.00;8.00
76049;PMS7003;64967;50.234;19.224;2023-06-14T14:26:49;9.67;8.67;6.00
76049;PMS7003;64967;50.234;19.224;2023-06-14T14:29:16;12.00;10.00;7.00
76049;PMS7003;64967;50.234;19.224;2023-06-14T14:31:45;11.00;8.00;6.33
76049;PMS7003;64967;50.234;19.224;2023-06-14T14:34:12;7.00;6.33;5.00
76049;PMS7003;64967;50.234;19.224;2023-06-14T14:36:39;8.67;7.67;5.00
76049;PMS7003;64967;50.234;19.224;2023-06-14T14:39:09;5.00;4.00;3.00
76049;PMS7003;64967;50.234;19.224;2023-06-14T14:41:36;5.00;5.00;4.00
76049;PMS7003;64967;50.234;19.224;2023-06-14T14:44:07;4.00;4.00;3.00
76049;PMS7003;64967;50.234;19.224;2023-06-14T14:46:34;6.00;5.00;4.33
76049;PMS7003;64967;50.234;19.224;2023-06-14T14:49:02;5.00;5.00;3.00
76049;PMS7003;64967;50.234;19.224;2023-06-14T14:51:29;8.00;7.33;6.00
76049;PMS7003;64967;50.234;19.224;2023-06-14T14:53:56;11.67;10.33;9.00
76049;PMS7003;64967;50.234;19.224;2023-06-14T14:56:23;8.33;8.33;7.00
76049;PMS7003;64967;50.234;19.224;2023-06-14T14:58:52;11.00;10.00;7.00
76049;PMS7003;64967;50.234;19.224;2023-06-14T15:01:19;8.00;8.00;6.00